Time;durP1;ratioP1;P1;durP2;ratioP2;P2;SDS_P1;SDS_P2;PMS_P1;PMS_P2;Temp;Humidity;BMP_temperature;BMP_pressure;BME280_temperature;BME280_humidity;BME280_pressure;Samples;Min_cycle;Max_cycle;Signal;HPM_P1;HPM_P2
2021/12/01 00:00:29;;;;;;;1.20;0.80;;;;;;;;;;5034201;28;20836;-78
2021/12/01 00:02:56;;;;;;;1.50;1.00;;;;;;;;;;5033346;28;20282;-78
2021/12/01 00:05:25;;;;;;;1.40;0.90;;;;;;;;;;5027450;28;20215;-80
2021/12/01 00:07:52;;;;;;;1.27;0.90;;;;;;;;;;5022341;28;20306;-79
2021/12/01 00:10:22;;;;;;;3.80;0.60;;;;;;;;;;5024652;28;20697;-78
2021/12/01 00:12:49;;;;;;;0.60;0.60;;;;;;;;;;5028508;28;20761;-78
2021/12/01 00:15:17;;;;;;;0.87;0.63;;;;;;;;;;5023910;28;20208;-79
2021/12/01 00:17:44;;;;;;;1.67;1.00;;;;;;;;;;5027762;28;20238;-79
2021/12/01 00:20:12;;;;;;;2.10;0.60;;;;;;;;;;5026429;28;20315;-78
2021/12/01 00:22:40;;;;;;;1.30;0.50;;;;;;;;;;5023640;28;20294;-80
2021/12/01 00:25:09;;;;;;;2.33;0.70;;;;;;;;;;5025804;28;20303;-79
2021/12/01 00:27:37;;;;;;;0.97;0.60;;;;;;;;;;5023357;28;20293;-78
2021/12/01 00:30:06;;;;;;;1.23;0.70;;;;;;;;;;5028824;28;20207;-78
2021/12/01 00:32:33;;;;;;;1.00;0.50;;;;;;;;;;5029150;28;20270;-77
2021/12/01 00:35:01;;;;;;;0.60;0.50;;;;;;;;;;5031636;28;20258;-77
2021/12/01 00:37:28;;;;;;;1.83;0.50;;;;;;;;;;5021259;28;20572;-78
2021/12/01 00:39:55;;;;;;;1.23;0.57;;;;;;;;;;5026095;28;20286;-78
2021/12/01 00:42:23;;;;;;;0.57;0.30;;;;;;;;;;5021487;28;20662;-78
2021/12/01 00:44:56;;;;;;;0.90;0.40;;;;;;;;;;5021369;28;20235;-78
2021/12/01 00:47:30;;;;;;;1.40;0.40;;;;;;;;;;5022059;28;20212;-78
2021/12/01 00:49:58;;;;;;;1.63;0.50;;;;;;;;;;5031045;28;20226;-78
2021/12/01 00:52:26;;;;;;;0.67;0.40;;;;;;;;;;5023870;28;20211;-78
2021/12/01 00:54:54;;;;;;;0.83;0.50;;;;;;;;;;5024659;28;20276;-78
2021/12/01 00:57:21;;;;;;;0.77;0.40;;;;;;;;;;5024518;28;20267;-78
2021/12/01 00:59:48;;;;;;;0.87;0.50;;;;;;;;;;5028669;28;20216;-79
2021/12/01 01:02:17;;;;;;;0.63;0.43;;;;;;;;;;5022235;28;20255;-78
2021/12/01 01:04:44;;;;;;;0.40;0.30;;;;;;;;;;5023905;28;20308;-78
2021/12/01 01:07:11;;;;;;;0.50;0.30;;;;;;;;;;5025134;28;20287;-78
2021/12/01 01:09:40;;;;;;;1.43;0.37;;;;;;;;;;5023650;28;20728;-78
2021/12/01 01:17:39;;;;;;;0.90;0.60;;;;;;;;;;5024698;28;20210;-77
2021/12/01 01:20:07;;;;;;;0.87;0.63;;;;;;;;;;5023925;28;20238;-77
2021/12/01 01:22:35;;;;;;;1.13;0.70;;;;;;;;;;5022494;28;20322;-78
2021/12/01 01:25:02;;;;;;;1.60;0.80;;;;;;;;;;5027235;28;20287;-78
2021/12/01 01:27:29;;;;;;;1.33;0.87;;;;;;;;;;5021118;28;20223;-78
2021/12/01 01:29:57;;;;;;;1.13;0.80;;;;;;;;;;5023891;28;20322;-78
2021/12/01 01:32:24;;;;;;;1.50;1.10;;;;;;;;;;5023822;28;20291;-79
2021/12/01 01:34:53;;;;;;;1.20;0.80;;;;;;;;;;5023258;28;20634;-77
2021/12/01 01:37:20;;;;;;;1.43;0.90;;;;;;;;;;5026066;28;20215;-76
2021/12/01 01:39:47;;;;;;;1.73;1.23;;;;;;;;;;5015495;28;20283;-77
2021/12/01 01:42:14;;;;;;;2.57;1.07;;;;;;;;;;5018604;28;20307;-77
2021/12/01 01:44:41;;;;;;;1.93;1.07;;;;;;;;;;5023134;28;20232;-77
2021/12/01 01:47:09;;;;;;;2.77;0.97;;;;;;;;;;5020582;28;20359;-78
2021/12/01 01:49:45;;;;;;;1.93;1.03;;;;;;;;;;5016806;28;20328;-77
2021/12/01 01:52:14;;;;;;;1.90;0.97;;;;;;;;;;5029632;28;20245;-77
2021/12/01 01:54:41;;;;;;;1.60;1.30;;;;;;;;;;5024307;28;20261;-77
2021/12/01 01:57:08;;;;;;;0.97;0.87;;;;;;;;;;5021637;28;20310;-77
2021/12/01 01:59:35;;;;;;;1.40;1.03;;;;;;;;;;5020481;28;20705;-77
2021/12/01 02:02:03;;;;;;;1.10;0.87;;;;;;;;;;5016369;28;20286;-78
2021/12/01 02:04:33;;;;;;;1.53;1.13;;;;;;;;;;5019677;28;20600;-78
2021/12/01 02:07:01;;;;;;;1.40;1.10;;;;;;;;;;5024015;28;20466;-77
2021/12/01 02:09:30;;;;;;;1.60;1.10;;;;;;;;;;5024154;28;20318;-77
2021/12/01 02:11:59;;;;;;;1.70;0.90;;;;;;;;;;5022184;28;20254;-77
2021/12/01 02:14:27;;;;;;;3.90;0.80;;;;;;;;;;5025818;28;20238;-77
2021/12/01 02:16:54;;;;;;;1.73;1.00;;;;;;;;;;5027006;28;20615;-77
2021/12/01 02:19:22;;;;;;;1.40;0.90;;;;;;;;;;5022484;28;20298;-77
2021/12/01 02:21:51;;;;;;;0.80;0.80;;;;;;;;;;5022462;28;20708;-78
2021/12/01 02:24:19;;;;;;;1.20;1.00;;;;;;;;;;5022291;28;20276;-77
2021/12/01 02:26:48;;;;;;;0.80;0.80;;;;;;;;;;5026188;28;20203;-77
2021/12/01 02:29:16;;;;;;;0.63;0.60;;;;;;;;;;5026458;28;20254;-77
2021/12/01 02:31:44;;;;;;;1.70;1.00;;;;;;;;;;5037387;28;20464;-77
2021/12/01 02:34:12;;;;;;;2.33;0.90;;;;;;;;;;5027427;28;20211;-78
2021/12/01 02:36:39;;;;;;;1.10;0.80;;;;;;;;;;5029483;28;20249;-77
2021/12/01 02:39:09;;;;;;;1.00;0.70;;;;;;;;;;5022003;28;20294;-78
2021/12/01 02:41:37;;;;;;;1.20;1.00;;;;;;;;;;5029930;28;20226;-78
2021/12/01 02:44:05;;;;;;;1.03;0.90;;;;;;;;;;5022062;28;20671;-80
2021/12/01 02:46:33;;;;;;;1.20;0.90;;;;;;;;;;5018896;28;20310;-78
2021/12/01 02:49:01;;;;;;;1.50;1.00;;;;;;;;;;5033149;28;20228;-78
2021/12/01 02:51:31;;;;;;;1.43;1.00;;;;;;;;;;5018518;28;20313;-78
2021/12/01 02:53:58;;;;;;;1.37;1.00;;;;;;;;;;5023325;28;20199;-79
2021/12/01 02:56:27;;;;;;;1.27;0.80;;;;;;;;;;5020561;28;20212;-78
2021/12/01 02:58:54;;;;;;;1.80;1.03;;;;;;;;;;5025086;28;20618;-78
2021/12/01 03:01:23;;;;;;;1.30;0.70;;;;;;;;;;5026882;28;20269;-78
2021/12/01 03:03:51;;;;;;;1.80;1.00;;;;;;;;;;5021492;28;20272;-77
2021/12/01 03:06:18;;;;;;;2.80;0.90;;;;;;;;;;5023205;28;20294;-77
2021/12/01 03:08:46;;;;;;;1.03;0.77;;;;;;;;;;5024965;28;20678;-77
2021/12/01 03:11:14;;;;;;;1.37;0.90;;;;;;;;;;5024550;28;20273;-77
2021/12/01 03:13:42;;;;;;;1.87;1.03;;;;;;;;;;5023685;28;20263;-77
2021/12/01 03:16:10;;;;;;;1.30;0.80;;;;;;;;;;5033112;28;20239;-77
2021/12/01 03:18:37;;;;;;;2.73;0.90;;;;;;;;;;5035668;28;20239;-77
2021/12/01 03:21:04;;;;;;;1.80;0.87;;;;;;;;;;5038334;28;20243;-77
2021/12/01 03:23:32;;;;;;;1.53;0.90;;;;;;;;;;5041624;28;20656;-77
2021/12/01 03:25:59;;;;;;;1.07;0.93;;;;;;;;;;5035420;28;20235;-78
2021/12/01 03:28:26;;;;;;;1.13;0.80;;;;;;;;;;5035159;28;20238;-77
2021/12/01 03:30:55;;;;;;;0.90;0.80;;;;;;;;;;5032938;28;20255;-77
2021/12/01 03:33:23;;;;;;;1.83;1.00;;;;;;;;;;5030478;28;20211;-77
2021/12/01 03:35:51;;;;;;;1.53;0.97;;;;;;;;;;5030784;28;20204;-76
2021/12/01 03:38:19;;;;;;;1.67;0.87;;;;;;;;;;5026156;28;20233;-77
2021/12/01 03:40:47;;;;;;;1.20;0.80;;;;;;;;;;5021331;28;20228;-77
2021/12/01 03:43:14;;;;;;;1.20;0.90;;;;;;;;;;5023621;28;20677;-77
2021/12/01 03:45:42;;;;;;;1.00;0.77;;;;;;;;;;5022891;28;20287;-76
2021/12/01 03:48:10;;;;;;;1.77;1.07;;;;;;;;;;5029162;28;20238;-77
2021/12/01 03:50:38;;;;;;;1.83;0.83;;;;;;;;;;5024460;28;20278;-76
2021/12/01 03:53:06;;;;;;;1.77;0.97;;;;;;;;;;5026796;28;20214;-78
2021/12/01 03:55:34;;;;;;;1.40;0.90;;;;;;;;;;5028824;28;20268;-78
2021/12/01 03:58:01;;;;;;;1.13;0.87;;;;;;;;;;5028504;28;20239;-77
2021/12/01 04:00:28;;;;;;;1.57;1.00;;;;;;;;;;5028536;28;20675;-77
2021/12/01 04:02:56;;;;;;;1.57;1.10;;;;;;;;;;5030088;28;20231;-78
2021/12/01 04:05:24;;;;;;;1.83;1.00;;;;;;;;;;5024031;28;20602;-77
2021/12/01 04:07:51;;;;;;;2.20;1.20;;;;;;;;;;5022499;28;20736;-77
2021/12/01 04:10:19;;;;;;;2.73;1.30;;;;;;;;;;5022329;28;20664;-77
2021/12/01 04:12:46;;;;;;;2.23;1.30;;;;;;;;;;5024246;28;20240;-78
2021/12/01 04:15:15;;;;;;;1.60;1.10;;;;;;;;;;5024100;28;20674;-78
2021/12/01 04:17:44;;;;;;;1.67;1.10;;;;;;;;;;5023507;28;20295;-77
2021/12/01 04:20:13;;;;;;;1.90;1.33;;;;;;;;;;5028603;28;20243;-77
2021/12/01 04:22:41;;;;;;;2.70;1.73;;;;;;;;;;5025848;28;20208;-77
2021/12/01 04:25:10;;;;;;;2.27;1.37;;;;;;;;;;5022125;28;20922;-75
2021/12/01 04:27:37;;;;;;;3.27;1.87;;;;;;;;;;5025610;28;20247;-76
2021/12/01 04:30:05;;;;;;;2.40;1.53;;;;;;;;;;5022629;28;20673;-77
2021/12/01 04:32:32;;;;;;;3.00;1.80;;;;;;;;;;5017692;28;20204;-76
2021/12/01 04:34:59;;;;;;;2.40;1.43;;;;;;;;;;5022041;28;20276;-77
2021/12/01 04:37:27;;;;;;;2.67;1.80;;;;;;;;;;5014215;28;20634;-77
2021/12/01 04:39:55;;;;;;;4.13;2.30;;;;;;;;;;5021160;28;20542;-77
2021/12/01 04:42:22;;;;;;;4.80;2.60;;;;;;;;;;5025320;28;20322;-78
2021/12/01 04:44:50;;;;;;;5.33;2.20;;;;;;;;;;5019125;28;20763;-78
2021/12/01 04:47:19;;;;;;;6.90;2.95;;;;;;;;;;5023683;28;20487;-78
2021/12/01 04:49:47;;;;;;;4.00;2.03;;;;;;;;;;5020466;28;20242;-78
2021/12/01 04:52:14;;;;;;;4.17;2.30;;;;;;;;;;5023218;28;20311;-78
2021/12/01 04:54:41;;;;;;;5.67;2.20;;;;;;;;;;5024075;28;20204;-78
2021/12/01 04:57:10;;;;;;;3.63;1.77;;;;;;;;;;5021194;28;20303;-76
2021/12/01 04:59:37;;;;;;;3.37;2.10;;;;;;;;;;5024485;28;20307;-77
2021/12/01 05:02:05;;;;;;;4.93;2.73;;;;;;;;;;5016627;28;20215;-78
2021/12/01 05:04:32;;;;;;;4.90;2.47;;;;;;;;;;5020599;28;20294;-78
2021/12/01 05:06:59;;;;;;;4.20;2.00;;;;;;;;;;5018751;28;20200;-78
2021/12/01 05:09:27;;;;;;;5.37;2.03;;;;;;;;;;5024118;28;20227;-78
2021/12/01 05:11:54;;;;;;;3.83;2.10;;;;;;;;;;5020831;28;20342;-77
2021/12/01 05:14:24;;;;;;;3.93;1.70;;;;;;;;;;5022464;28;20235;-78
2021/12/01 05:16:52;;;;;;;3.60;1.90;;;;;;;;;;5016795;28;20271;-78
2021/12/01 05:19:19;;;;;;;4.77;2.10;;;;;;;;;;5021735;28;20238;-77
2021/12/01 05:21:46;;;;;;;5.77;3.07;;;;;;;;;;5021168;28;20303;-77
2021/12/01 05:24:13;;;;;;;3.13;1.93;;;;;;;;;;5022897;28;20245;-77
2021/12/01 05:26:41;;;;;;;3.07;1.97;;;;;;;;;;5020287;28;20270;-76
2021/12/01 05:29:08;;;;;;;3.20;1.60;;;;;;;;;;5022915;28;20286;-77
2021/12/01 05:31:37;;;;;;;2.93;1.70;;;;;;;;;;5015332;28;20311;-77
2021/12/01 05:34:05;;;;;;;3.37;1.90;;;;;;;;;;5014848;28;21694;-76
2021/12/01 05:36:33;;;;;;;1.97;1.37;;;;;;;;;;5022823;28;20212;-78
2021/12/01 05:39:00;;;;;;;2.93;1.73;;;;;;;;;;5025010;28;20208;-77
2021/12/01 05:41:27;;;;;;;1.53;1.00;;;;;;;;;;5014930;28;20316;-77
2021/12/01 05:43:54;;;;;;;1.93;1.20;;;;;;;;;;5017246;28;20239;-78
2021/12/01 05:46:22;;;;;;;6.17;1.57;;;;;;;;;;5019843;28;20247;-77
2021/12/01 05:48:51;;;;;;;2.03;1.40;;;;;;;;;;5018990;28;20335;-77
2021/12/01 05:51:19;;;;;;;2.13;1.27;;;;;;;;;;5025740;28;20257;-77
2021/12/01 05:53:46;;;;;;;1.27;1.00;;;;;;;;;;5013555;28;20258;-78
2021/12/01 05:56:13;;;;;;;2.03;1.00;;;;;;;;;;5010030;28;20235;-78
2021/12/01 05:58:41;;;;;;;1.20;0.70;;;;;;;;;;5006196;28;20654;-77
2021/12/01 06:01:08;;;;;;;1.97;1.00;;;;;;;;;;5006171;28;20230;-77
2021/12/01 06:03:35;;;;;;;1.60;1.00;;;;;;;;;;5026403;28;20290;-78
2021/12/01 06:06:04;;;;;;;1.37;0.80;;;;;;;;;;5024140;28;20199;-76
2021/12/01 06:08:31;;;;;;;1.07;0.90;;;;;;;;;;5010214;28;20227;-78
2021/12/01 06:10:58;;;;;;;1.60;0.90;;;;;;;;;;5018840;28;20289;-77
2021/12/01 06:13:25;;;;;;;1.17;0.80;;;;;;;;;;5014127;28;20679;-77
2021/12/01 06:15:53;;;;;;;3.07;0.97;;;;;;;;;;5007053;28;20239;-77
2021/12/01 06:18:20;;;;;;;1.40;0.80;;;;;;;;;;5013007;28;20295;-78
2021/12/01 06:20:48;;;;;;;1.60;0.97;;;;;;;;;;5020303;28;20232;-77
2021/12/01 06:23:17;;;;;;;1.87;0.90;;;;;;;;;;5020326;28;20296;-77
2021/12/01 06:25:44;;;;;;;1.00;0.80;;;;;;;;;;5020593;28;20243;-77
2021/12/01 06:28:11;;;;;;;1.90;0.97;;;;;;;;;;5020622;28;20331;-77
2021/12/01 06:30:39;;;;;;;1.93;0.90;;;;;;;;;;5017265;28;20235;-77
2021/12/01 06:33:06;;;;;;;1.07;0.83;;;;;;;;;;5018448;28;20327;-78
2021/12/01 06:35:34;;;;;;;2.00;1.10;;;;;;;;;;5014308;28;20216;-76
2021/12/01 06:38:01;;;;;;;3.40;0.97;;;;;;;;;;5017326;28;20296;-78
2021/12/01 06:40:30;;;;;;;2.00;1.20;;;;;;;;;;5027784;28;20284;-77
2021/12/01 06:42:57;;;;;;;1.53;0.80;;;;;;;;;;5029147;28;20651;-76
2021/12/01 06:45:25;;;;;;;1.87;1.10;;;;;;;;;;5021371;28;20336;-76
2021/12/01 06:47:52;;;;;;;3.87;1.03;;;;;;;;;;5025081;28;20204;-76
2021/12/01 06:50:19;;;;;;;1.73;0.90;;;;;;;;;;5027433;28;20311;-76
2021/12/01 06:52:47;;;;;;;2.70;1.27;;;;;;;;;;5025042;28;20641;-77
2021/12/01 06:55:14;;;;;;;2.30;1.50;;;;;;;;;;5025505;28;20204;-77
2021/12/01 06:57:43;;;;;;;1.77;1.10;;;;;;;;;;5027578;28;20253;-78
2021/12/01 07:00:12;;;;;;;1.63;1.10;;;;;;;;;;5028226;28;20255;-76
2021/12/01 07:02:39;;;;;;;3.27;1.53;;;;;;;;;;5027823;28;20250;-77
2021/12/01 07:05:07;;;;;;;4.13;1.40;;;;;;;;;;5027790;28;20283;-77
2021/12/01 07:07:35;;;;;;;2.43;1.10;;;;;;;;;;5027093;28;20240;-77
2021/12/01 07:10:02;;;;;;;1.27;0.90;;;;;;;;;;5029664;28;20255;-78
2021/12/01 07:12:29;;;;;;;2.10;1.13;;;;;;;;;;5026526;28;20303;-78
2021/12/01 07:14:58;;;;;;;2.40;1.03;;;;;;;;;;5024684;28;20284;-77
2021/12/01 07:17:25;;;;;;;4.13;1.20;;;;;;;;;;5030506;28;20712;-77
2021/12/01 07:19:52;;;;;;;1.13;0.73;;;;;;;;;;5030852;28;20203;-77
2021/12/01 07:22:20;;;;;;;1.87;1.00;;;;;;;;;;5020888;28;20231;-78
2021/12/01 07:24:47;;;;;;;1.93;1.00;;;;;;;;;;5020844;28;20653;-79
2021/12/01 07:27:14;;;;;;;27.57;1.33;;;;;;;;;;5021463;28;20518;-77
2021/12/01 07:29:42;;;;;;;2.00;1.20;;;;;;;;;;5029286;28;20274;-78
2021/12/01 07:32:14;;;;;;;3.00;1.30;;;;;;;;;;5029906;28;20222;-79
2021/12/01 07:34:42;;;;;;;4.30;1.30;;;;;;;;;;5022465;28;20287;-79
2021/12/01 07:37:10;;;;;;;2.10;1.20;;;;;;;;;;5018539;28;20205;-77
2021/12/01 07:39:37;;;;;;;2.30;1.30;;;;;;;;;;5025142;28;20765;-77
2021/12/01 07:42:04;;;;;;;1.67;1.10;;;;;;;;;;5025063;28;20239;-77
2021/12/01 07:44:31;;;;;;;1.63;1.00;;;;;;;;;;5024418;28;20290;-78
2021/12/01 07:46:59;;;;;;;3.27;1.10;;;;;;;;;;5021584;28;20555;-78
2021/12/01 07:49:28;;;;;;;1.43;1.00;;;;;;;;;;5020060;28;20317;-76
2021/12/01 07:51:55;;;;;;;1.60;0.90;;;;;;;;;;5022805;28;20344;-78
2021/12/01 07:54:22;;;;;;;1.43;0.77;;;;;;;;;;5021561;28;20216;-77
2021/12/01 07:56:49;;;;;;;3.23;0.67;;;;;;;;;;5025651;28;20255;-76
2021/12/01 07:59:17;;;;;;;2.50;0.90;;;;;;;;;;5022343;28;20287;-78
2021/12/01 08:01:44;;;;;;;1.40;0.80;;;;;;;;;;5021370;28;20865;-78
2021/12/01 08:04:11;;;;;;;1.20;0.73;;;;;;;;;;5020859;28;20641;-78
2021/12/01 08:06:43;;;;;;;2.27;1.00;;;;;;;;;;5029257;28;20258;-77
2021/12/01 08:09:10;;;;;;;1.50;0.73;;;;;;;;;;5022583;28;20218;-76
2021/12/01 08:11:38;;;;;;;1.53;0.90;;;;;;;;;;5029781;28;20322;-78
2021/12/01 08:14:06;;;;;;;0.70;0.60;;;;;;;;;;5025575;28;20677;-78
2021/12/01 08:16:33;;;;;;;3.13;0.73;;;;;;;;;;5029085;28;20216;-77
2021/12/01 08:19:00;;;;;;;0.90;0.60;;;;;;;;;;5027136;28;20289;-77
2021/12/01 08:21:28;;;;;;;0.70;0.60;;;;;;;;;;5026132;28;20263;-77
2021/12/01 08:23:56;;;;;;;3.37;0.80;;;;;;;;;;5021130;28;20282;-77
2021/12/01 08:26:24;;;;;;;1.93;0.80;;;;;;;;;;5024986;28;20672;-77
2021/12/01 08:28:52;;;;;;;0.90;0.60;;;;;;;;;;5023378;28;20290;-77
2021/12/01 08:31:20;;;;;;;1.13;0.60;;;;;;;;;;5031261;28;20309;-77
2021/12/01 08:33:47;;;;;;;1.00;0.80;;;;;;;;;;5023703;28;20244;-77
2021/12/01 08:36:15;;;;;;;0.97;0.50;;;;;;;;;;5037262;28;20195;-76
2021/12/01 08:38:43;;;;;;;1.20;0.50;;;;;;;;;;5025945;28;20422;-77
2021/12/01 08:41:12;;;;;;;1.00;0.67;;;;;;;;;;5011410;28;20313;-77
2021/12/01 08:43:39;;;;;;;2.30;0.60;;;;;;;;;;5010437;28;20231;-77
2021/12/01 08:46:07;;;;;;;1.27;0.63;;;;;;;;;;5026670;28;20555;-78
2021/12/01 08:48:34;;;;;;;1.07;0.60;;;;;;;;;;5009832;28;20332;-76
2021/12/01 08:51:03;;;;;;;1.17;0.70;;;;;;;;;;5014336;28;20231;-77
2021/12/01 08:53:30;;;;;;;1.20;0.60;;;;;;;;;;5026495;28;20210;-77
2021/12/01 08:55:58;;;;;;;1.23;0.60;;;;;;;;;;5021687;28;20662;-77
2021/12/01 08:58:27;;;;;;;1.37;0.60;;;;;;;;;;5032944;28;20248;-77
2021/12/01 09:00:55;;;;;;;1.37;0.73;;;;;;;;;;5017699;28;20277;-76
2021/12/01 09:03:24;;;;;;;0.70;0.50;;;;;;;;;;5019984;28;20204;-76
2021/12/01 09:05:52;;;;;;;0.70;0.50;;;;;;;;;;5007253;28;20300;-77
2021/12/01 09:08:20;;;;;;;1.33;0.60;;;;;;;;;;5007708;28;20212;-77
2021/12/01 09:10:48;;;;;;;0.60;0.50;;;;;;;;;;5006441;28;20220;-76
2021/12/01 09:13:16;;;;;;;5.37;0.50;;;;;;;;;;5006933;28;20302;-75
2021/12/01 09:15:44;;;;;;;0.90;0.50;;;;;;;;;;5011740;28;20714;-76
2021/12/01 09:18:11;;;;;;;0.60;0.40;;;;;;;;;;5002800;28;20232;-76
2021/12/01 09:20:39;;;;;;;1.17;0.40;;;;;;;;;;5021780;28;20266;-75
2021/12/01 09:23:06;;;;;;;0.70;0.40;;;;;;;;;;5023796;28;20774;-76
2021/12/01 09:25:34;;;;;;;1.10;0.57;;;;;;;;;;5024350;28;20231;-76
2021/12/01 09:28:02;;;;;;;0.80;0.50;;;;;;;;;;5025901;28;20287;-76
2021/12/01 09:30:29;;;;;;;1.07;0.53;;;;;;;;;;5021467;28;20259;-76
2021/12/01 09:32:58;;;;;;;0.53;0.40;;;;;;;;;;5024873;28;20243;-77
2021/12/01 09:35:25;;;;;;;3.50;1.67;;;;;;;;;;5026782;28;20212;-76
2021/12/01 09:37:55;;;;;;;2.13;1.23;;;;;;;;;;5030149;28;20255;-76
2021/12/01 09:40:23;;;;;;;0.60;0.50;;;;;;;;;;5022233;28;20232;-77
2021/12/01 09:42:52;;;;;;;0.83;0.40;;;;;;;;;;5026500;28;20211;-77
2021/12/01 09:45:21;;;;;;;1.60;0.90;;;;;;;;;;5016444;28;20670;-77
2021/12/01 09:47:48;;;;;;;0.90;0.50;;;;;;;;;;5021618;28;20204;-78
2021/12/01 09:50:17;;;;;;;1.87;0.70;;;;;;;;;;5021992;28;20264;-78
2021/12/01 09:52:44;;;;;;;1.17;0.70;;;;;;;;;;5025651;28;20320;-77
2021/12/01 09:55:13;;;;;;;2.00;0.80;;;;;;;;;;5020421;28;20283;-78
2021/12/01 09:57:40;;;;;;;0.93;0.50;;;;;;;;;;5023549;28;20224;-78
2021/12/01 10:00:08;;;;;;;0.87;0.67;;;;;;;;;;5023597;28;20235;-78
2021/12/01 10:02:35;;;;;;;0.83;0.50;;;;;;;;;;5025802;28;20642;-78
2021/12/01 10:05:03;;;;;;;0.93;0.70;;;;;;;;;;5022416;28;20282;-78
2021/12/01 10:07:34;;;;;;;1.03;0.60;;;;;;;;;;5026889;28;20399;-78
2021/12/01 10:10:07;;;;;;;0.87;0.50;;;;;;;;;;5025964;28;20295;-78
2021/12/01 10:12:45;;;;;;;0.33;0.30;;;;;;;;;;5023562;28;20689;-78
2021/12/01 10:15:12;;;;;;;0.90;0.40;;;;;;;;;;5022385;28;20216;-78
2021/12/01 10:17:40;;;;;;;0.63;0.60;;;;;;;;;;5020951;28;20283;-78
2021/12/01 10:20:14;;;;;;;1.07;0.67;;;;;;;;;;5022998;28;20788;-78
2021/12/01 10:23:03;;;;;;;1.10;0.50;;;;;;;;;;5026088;28;20254;-78
2021/12/01 10:25:30;;;;;;;0.30;0.30;;;;;;;;;;5031940;28;20251;-77
2021/12/01 10:27:57;;;;;;;0.80;0.47;;;;;;;;;;5034507;28;20235;-78
2021/12/01 10:30:39;;;;;;;1.93;0.47;;;;;;;;;;5026460;28;20254;-78
2021/12/01 10:35:35;;;;;;;2.63;1.00;;;;;;;;;;5063003;28;20219;-78
2021/12/01 10:38:04;;;;;;;5.00;1.73;;;;;;;;;;5063579;28;20218;-79
2021/12/01 10:40:31;;;;;;;0.83;0.40;;;;;;;;;;5064998;28;20314;-80
2021/12/01 10:43:00;;;;;;;0.93;0.80;;;;;;;;;;5061842;28;20225;-79
2021/12/01 10:45:31;;;;;;;1.17;0.30;;;;;;;;;;5063472;28;20269;-79
2021/12/01 10:47:58;;;;;;;0.73;0.50;;;;;;;;;;5063553;28;20289;-79
2021/12/01 10:50:27;;;;;;;0.30;0.30;;;;;;;;;;5063277;28;20254;-79
2021/12/01 10:53:01;;;;;;;1.57;0.40;;;;;;;;;;5066172;28;20280;-80
2021/12/01 10:55:30;;;;;;;0.53;0.30;;;;;;;;;;5065297;28;20209;-79
2021/12/01 10:57:59;;;;;;;0.40;0.30;;;;;;;;;;5068907;28;20217;-80
2021/12/01 11:00:28;;;;;;;0.63;0.50;;;;;;;;;;5064175;28;20250;-80
2021/12/01 11:02:56;;;;;;;0.30;0.30;;;;;;;;;;5064147;28;20214;-79
2021/12/01 11:05:27;;;;;;;0.67;0.40;;;;;;;;;;5063820;28;20230;-79
2021/12/01 11:07:54;;;;;;;0.53;0.30;;;;;;;;;;5062759;28;20238;-80
2021/12/01 11:10:24;;;;;;;2.10;1.10;;;;;;;;;;5064926;28;20262;-79
2021/12/01 11:12:57;;;;;;;39.60;14.97;;;;;;;;;;5064478;28;20223;-79
2021/12/01 11:15:25;;;;;;;2.80;1.63;;;;;;;;;;5068155;28;20646;-80
2021/12/01 11:17:54;;;;;;;1.17;0.33;;;;;;;;;;5065649;28;20249;-79
2021/12/01 11:20:38;;;;;;;3.50;1.97;;;;;;;;;;5064215;28;20604;-80
2021/12/01 11:23:10;;;;;;;5.13;1.77;;;;;;;;;;5063097;28;20668;-80
2021/12/01 11:25:38;;;;;;;1.57;0.93;;;;;;;;;;5060607;28;20499;-81
2021/12/01 11:28:08;;;;;;;1.00;0.60;;;;;;;;;;5066026;28;20202;-80
2021/12/01 11:30:35;;;;;;;1.27;0.80;;;;;;;;;;5064512;28;20279;-79
2021/12/01 11:33:03;;;;;;;1.40;0.70;;;;;;;;;;5063950;28;20313;-80
2021/12/01 11:35:30;;;;;;;0.30;0.30;;;;;;;;;;5059660;28;20237;-79
2021/12/01 11:37:58;;;;;;;0.60;0.47;;;;;;;;;;5062085;28;20203;-81
2021/12/01 11:40:27;;;;;;;0.63;0.40;;;;;;;;;;5064251;28;20266;-79
2021/12/01 11:42:54;;;;;;;1.07;0.90;;;;;;;;;;5065812;28;20230;-80
2021/12/01 11:45:23;;;;;;;0.70;0.40;;;;;;;;;;5062791;28;20297;-79
2021/12/01 11:47:50;;;;;;;1.07;0.63;;;;;;;;;;5062295;28;20207;-80
2021/12/01 11:50:20;;;;;;;0.97;0.70;;;;;;;;;;5061939;28;20269;-80
2021/12/01 11:52:54;;;;;;;0.70;0.60;;;;;;;;;;5060385;28;20290;-80
2021/12/01 11:55:36;;;;;;;1.23;0.77;;;;;;;;;;5064788;28;20242;-79
2021/12/01 11:58:03;;;;;;;5.77;3.07;;;;;;;;;;5066009;28;20206;-79
2021/12/01 12:03:27;;;;;;;3.70;2.00;;;;;;;;;;5099515;27;20630;-78
2021/12/01 12:06:13;;;;;;;3.27;2.03;;;;;;;;;;5089008;28;20217;-79
2021/12/01 12:08:59;;;;;;;1.10;0.70;;;;;;;;;;5086724;28;20296;-79
2021/12/01 12:11:44;;;;;;;2.33;1.40;;;;;;;;;;5081750;28;20221;-79
2021/12/01 12:14:14;;;;;;;1.53;1.10;;;;;;;;;;5086810;28;20833;-79
2021/12/01 12:16:42;;;;;;;2.00;1.27;;;;;;;;;;5087137;28;20305;-79
2021/12/01 12:19:11;;;;;;;1.27;0.80;;;;;;;;;;5078624;28;20298;-79
2021/12/01 12:21:42;;;;;;;1.70;0.77;;;;;;;;;;5085081;28;20314;-79
2021/12/01 12:24:11;;;;;;;2.00;1.40;;;;;;;;;;5087123;28;20213;-79
2021/12/01 12:26:41;;;;;;;3.30;2.80;;;;;;;;;;5086864;28;20209;-77
2021/12/01 12:29:12;;;;;;;3.90;1.47;;;;;;;;;;5084364;28;20581;-78
2021/12/01 12:31:40;;;;;;;1.63;0.93;;;;;;;;;;5086477;28;20498;-79
2021/12/01 12:34:09;;;;;;;0.77;0.53;;;;;;;;;;5088044;28;20771;-79
2021/12/01 12:36:42;;;;;;;0.90;0.50;;;;;;;;;;5086255;28;20714;-79
2021/12/01 12:39:10;;;;;;;0.83;0.40;;;;;;;;;;5084083;28;20241;-79
2021/12/01 12:41:57;;;;;;;2.70;0.80;;;;;;;;;;5084199;28;20857;-80
2021/12/01 12:44:31;;;;;;;0.20;0.20;;;;;;;;;;5087761;28;20208;-79
2021/12/01 12:47:02;;;;;;;0.60;0.30;;;;;;;;;;5086057;28;20226;-78
2021/12/01 12:49:39;;;;;;;0.60;0.30;;;;;;;;;;5088147;28;20233;-78
2021/12/01 12:52:21;;;;;;;1.17;0.20;;;;;;;;;;5086501;28;20271;-79
2021/12/01 12:54:49;;;;;;;0.27;0.17;;;;;;;;;;5088443;28;20667;-79
2021/12/01 12:57:17;;;;;;;0.47;0.20;;;;;;;;;;5082390;28;20267;-79
2021/12/01 12:59:44;;;;;;;0.33;0.20;;;;;;;;;;5084860;28;20261;-80
2021/12/01 13:02:35;;;;;;;0.20;0.20;;;;;;;;;;5086879;28;20261;-77
2021/12/01 13:05:05;;;;;;;1.10;0.30;;;;;;;;;;5068279;28;20210;-78
2021/12/01 13:07:34;;;;;;;0.67;0.40;;;;;;;;;;5090358;28;20212;-77
2021/12/01 13:10:10;;;;;;;0.17;0.17;;;;;;;;;;5086510;28;20255;-77
2021/12/01 13:12:45;;;;;;;0.53;0.40;;;;;;;;;;5084890;28;20282;-77
2021/12/01 13:15:19;;;;;;;0.60;0.30;;;;;;;;;;5075886;28;20499;-78
2021/12/01 13:17:47;;;;;;;0.60;0.23;;;;;;;;;;5077401;28;20240;-79
2021/12/01 13:20:14;;;;;;;0.93;0.30;;;;;;;;;;5073439;28;20234;-78
2021/12/01 13:22:42;;;;;;;1.17;0.30;;;;;;;;;;5070448;28;20238;-79
2021/12/01 13:25:17;;;;;;;20.30;6.83;;;;;;;;;;5075569;28;20226;-79
2021/12/01 13:27:45;;;;;;;11.27;3.97;;;;;;;;;;5074908;28;20213;-78
2021/12/01 13:30:13;;;;;;;5.10;2.20;;;;;;;;;;5075606;28;20241;-78
2021/12/01 13:32:40;;;;;;;3.63;1.70;;;;;;;;;;5073900;28;20226;-78
2021/12/01 13:35:07;;;;;;;1.10;0.70;;;;;;;;;;5075802;28;20260;-79
2021/12/01 13:37:35;;;;;;;1.87;0.87;;;;;;;;;;5075854;28;20685;-79
2021/12/01 13:40:08;;;;;;;5.90;3.80;;;;;;;;;;5082949;28;20206;-78
2021/12/01 13:42:37;;;;;;;5.73;2.63;;;;;;;;;;5084394;28;20459;-78
2021/12/01 13:45:05;;;;;;;3.57;1.90;;;;;;;;;;5084378;28;20211;-77
2021/12/01 13:47:34;;;;;;;2.57;1.57;;;;;;;;;;5083371;28;20214;-78
2021/12/01 13:50:03;;;;;;;1.33;0.80;;;;;;;;;;5083338;28;20216;-77
2021/12/01 13:52:33;;;;;;;4.27;2.53;;;;;;;;;;5085066;28;20609;-78
2021/12/01 13:55:15;;;;;;;2.50;2.07;;;;;;;;;;5085023;28;20214;-78
2021/12/01 13:57:44;;;;;;;6.10;4.33;;;;;;;;;;5080505;28;20233;-78
2021/12/01 14:00:11;;;;;;;2.33;1.47;;;;;;;;;;5068409;28;20266;-79
2021/12/01 14:02:38;;;;;;;5.17;3.00;;;;;;;;;;5067676;28;20292;-79
2021/12/01 14:05:06;;;;;;;2.00;1.63;;;;;;;;;;5071299;28;20255;-80
2021/12/01 14:07:45;;;;;;;0.60;0.50;;;;;;;;;;5071801;28;20263;-79
2021/12/01 14:10:14;;;;;;;0.80;0.50;;;;;;;;;;5066201;28;20294;-79
2021/12/01 14:12:55;;;;;;;0.87;0.57;;;;;;;;;;5066308;28;20222;-79
2021/12/01 14:15:26;;;;;;;0.80;0.63;;;;;;;;;;5064844;28;22391;-79
2021/12/01 14:17:53;;;;;;;1.40;0.60;;;;;;;;;;5067703;28;20226;-79
2021/12/01 14:20:22;;;;;;;1.97;0.93;;;;;;;;;;5073809;28;20262;-79
2021/12/01 14:22:50;;;;;;;5.67;1.73;;;;;;;;;;5074358;28;20215;-78
2021/12/01 14:25:20;;;;;;;1.80;0.70;;;;;;;;;;5066388;28;20210;-79
2021/12/01 14:27:48;;;;;;;4.73;1.27;;;;;;;;;;5074248;28;20198;-78
2021/12/01 14:30:18;;;;;;;1.50;0.90;;;;;;;;;;5074526;28;20218;-79
2021/12/01 14:32:46;;;;;;;2.70;1.23;;;;;;;;;;5071189;28;20198;-79
2021/12/01 14:35:14;;;;;;;2.30;0.93;;;;;;;;;;5071548;28;20238;-78
2021/12/01 14:37:41;;;;;;;3.27;1.50;;;;;;;;;;5072912;28;20642;-79
2021/12/01 14:40:10;;;;;;;5.80;2.73;;;;;;;;;;5073719;28;20206;-77
2021/12/01 14:42:41;;;;;;;4.53;2.43;;;;;;;;;;5071540;28;20310;-78
2021/12/01 14:45:09;;;;;;;6.00;2.63;;;;;;;;;;5071857;28;20237;-79
2021/12/01 14:47:38;;;;;;;4.17;2.10;;;;;;;;;;5071560;28;20198;-78
2021/12/01 14:50:06;;;;;;;7.13;2.30;;;;;;;;;;5063027;28;20262;-78
2021/12/01 14:52:36;;;;;;;4.57;2.07;;;;;;;;;;5056885;28;20194;-78
2021/12/01 14:55:07;;;;;;;4.27;1.90;;;;;;;;;;5064221;28;20206;-78
2021/12/01 14:57:36;;;;;;;4.13;2.30;;;;;;;;;;5060923;28;20294;-78
2021/12/01 15:00:07;;;;;;;2.37;1.70;;;;;;;;;;5068118;28;20254;-78
2021/12/01 15:02:35;;;;;;;4.40;2.40;;;;;;;;;;5066337;28;20769;-78